createdAt,value
2018-02-06T00:01:41.323Z,80.00
2018-02-06T00:04:08.906Z,79.50
2018-02-06T00:06:36.481Z,79.70
2018-02-06T00:09:03.338Z,79.60
2018-02-06T00:11:30.178Z,79.80
2018-02-06T00:13:56.997Z,80.50
2018-02-06T00:16:24.558Z,79.60
2018-02-06T00:18:51.368Z,79.60
2018-02-06T00:21:18.216Z,79.30
2018-02-06T00:23:45.060Z,80.00
2018-02-06T00:26:12.645Z,79.80
2018-02-06T00:28:40.189Z,79.80
2018-02-06T00:31:07.022Z,79.80
2018-02-06T00:33:34.603Z,79.30
2018-02-06T00:36:02.177Z,79.20
2018-02-06T00:38:28.976Z,79.10
2018-02-06T00:40:55.806Z,78.70
2018-02-06T00:43:22.622Z,79.20
2018-02-06T00:45:49.433Z,79.40
2018-02-06T00:48:17.001Z,79.00
2018-02-06T00:50:43.842Z,79.00
2018-02-06T00:53:10.685Z,78.00
2018-02-06T00:55:37.524Z,78.40
2018-02-06T00:58:04.514Z,78.30
2018-02-06T01:00:31.330Z,78.00
2018-02-06T01:02:58.121Z,78.40
2018-02-06T01:05:24.930Z,78.50
2018-02-06T01:07:51.791Z,78.40
2018-02-06T01:10:18.658Z,78.60
2018-02-06T01:12:45.453Z,78.80
2018-02-06T01:15:12.326Z,79.20
2018-02-06T01:17:39.113Z,78.20
2018-02-06T01:20:05.934Z,78.40
2018-02-06T01:22:33.513Z,78.30
2018-02-06T01:25:01.055Z,78.10
2018-02-06T01:27:28.734Z,77.60
2018-02-06T01:29:55.563Z,77.50
2018-02-06T01:32:22.406Z,78.10
2018-02-06T01:34:49.221Z,78.30
2018-02-06T01:37:16.765Z,77.00
2018-02-06T01:39:43.573Z,77.40
2018-02-06T01:42:11.234Z,77.30
2018-02-06T01:44:38.052Z,77.30
2018-02-06T01:47:05.597Z,77.60
2018-02-06T01:49:33.297Z,77.50
2018-02-06T01:52:00.110Z,77.40
2018-02-06T01:54:26.922Z,76.40
2018-02-06T01:56:53.810Z,75.80
2018-02-06T01:59:21.353Z,75.80
2018-02-06T02:01:48.213Z,75.70
2018-02-06T02:04:15.041Z,75.40
2018-02-06T02:06:42.582Z,75.20
2018-02-06T02:09:09.398Z,75.20
2018-02-06T02:11:36.216Z,74.30
2018-02-06T02:14:03.288Z,74.70
2018-02-06T02:16:30.065Z,74.30
2018-02-06T02:18:56.853Z,74.30
2018-02-06T02:21:23.693Z,73.60
2018-02-06T02:23:51.235Z,73.90
2018-02-06T02:26:18.756Z,73.10
2018-02-06T02:28:45.782Z,73.00
2018-02-06T02:31:12.607Z,73.20
2018-02-06T02:33:39.457Z,73.30
2018-02-06T02:36:06.298Z,73.00
2018-02-06T02:38:33.126Z,72.70
2018-02-06T02:40:59.954Z,73.30
2018-02-06T04:38:30.050Z,66.50
2018-02-06T04:40:56.909Z,66.90
2018-02-06T04:43:23.714Z,66.40
2018-02-06T04:45:50.711Z,65.60
2018-02-06T04:48:17.561Z,66.30
2018-02-06T04:50:44.376Z,66.40
2018-02-06T04:53:11.229Z,66.30
2018-02-06T04:55:38.053Z,66.80
2018-02-06T04:58:04.930Z,65.70
2018-02-06T05:00:31.781Z,66.30
2018-02-06T05:02:58.602Z,65.60
2018-02-06T05:05:25.429Z,65.70
2018-02-06T05:07:52.313Z,66.40
2018-02-06T05:10:19.161Z,66.40
2018-02-06T05:12:45.980Z,65.30
2018-02-06T05:15:12.784Z,65.40
2018-02-06T05:17:39.634Z,65.50
2018-02-06T05:20:06.528Z,65.10
2018-02-06T05:22:34.101Z,65.40
2018-02-06T05:25:01.721Z,65.30
2018-02-06T05:27:28.558Z,65.30
2018-02-06T05:29:55.358Z,65.10
2018-02-06T05:32:22.955Z,66.00
2018-02-06T05:34:49.812Z,65.80
2018-02-06T05:37:16.645Z,64.70
2018-02-06T05:39:43.457Z,65.00
2018-02-06T05:42:10.266Z,65.30
2018-02-06T05:44:37.109Z,64.90
2018-02-06T05:47:03.946Z,65.20
2018-02-06T05:49:30.862Z,65.20
2018-02-06T05:51:58.496Z,66.00
2018-02-06T05:54:25.336Z,66.00
2018-02-06T05:56:52.898Z,65.80
2018-02-06T05:59:19.708Z,65.70
2018-02-06T06:01:46.525Z,66.00
2018-02-06T06:04:14.174Z,65.60
2018-02-06T06:06:41.030Z,65.60
2018-02-06T06:09:07.874Z,66.80
2018-02-06T06:11:35.534Z,66.60
2018-02-06T06:14:02.412Z,66.60
2018-02-06T06:16:29.321Z,66.50
2018-02-06T06:18:56.985Z,66.70
2018-02-06T06:21:23.883Z,66.60
2018-02-06T06:23:50.858Z,67.10
2018-02-06T06:26:17.770Z,67.10
2018-02-06T06:28:44.688Z,68.00
2018-02-06T06:31:11.662Z,68.50
2018-02-06T06:33:38.567Z,68.50
2018-02-06T06:36:06.172Z,67.60
2018-02-06T06:38:33.074Z,67.50
2018-02-06T06:40:59.954Z,68.20
2018-02-06T06:43:26.889Z,68.20
2018-02-06T06:45:54.483Z,68.60
2018-02-06T06:48:21.334Z,68.50
2018-02-06T06:50:48.207Z,69.50
2018-02-06T06:53:15.812Z,69.60
2018-02-06T06:55:42.665Z,69.60
2018-02-06T06:58:09.557Z,70.10
2018-02-06T07:00:37.154Z,69.30
2018-02-06T07:03:04.047Z,69.20
2018-02-06T07:05:31.698Z,70.20
2018-02-06T07:07:58.567Z,70.10
2018-02-06T07:10:26.149Z,70.60
2018-02-06T07:12:53.738Z,70.60
2018-02-06T07:15:20.622Z,70.50
2018-02-06T07:17:47.486Z,69.50
2018-02-06T07:20:15.082Z,69.40
2018-02-06T07:22:41.932Z,69.40
2018-02-06T07:25:08.820Z,69.50
2018-02-06T07:27:36.439Z,69.90
2018-02-06T07:30:03.323Z,69.90
2018-02-06T07:32:30.188Z,69.80
2018-02-06T07:34:57.046Z,69.40
2018-02-06T07:37:24.657Z,70.30
2018-02-06T07:39:51.578Z,70.30
2018-02-06T07:42:19.233Z,70.60
2018-02-06T07:44:46.185Z,70.60
2018-02-06T07:47:13.100Z,71.40
2018-02-06T07:49:40.026Z,71.80
2018-02-06T07:52:06.894Z,71.70
2018-02-06T07:54:33.767Z,71.70
2018-02-06T07:57:00.625Z,71.50
2018-02-06T07:59:27.474Z,70.60
2018-02-06T08:01:54.354Z,70.30
2018-02-06T08:04:21.930Z,70.80
2018-02-06T08:06:48.794Z,70.70
2018-02-06T08:09:16.417Z,70.50
2018-02-06T08:11:44.181Z,70.50
2018-02-06T08:14:11.073Z,71.50
2018-02-06T08:16:37.898Z,71.10
2018-02-06T08:19:04.733Z,70.10
2018-02-06T08:21:31.553Z,71.30
2018-02-06T08:23:58.399Z,71.40
2018-02-06T08:26:32.986Z,70.90
2018-02-06T08:28:59.805Z,70.80
2018-02-06T08:31:26.687Z,71.20
2018-02-06T08:33:53.506Z,69.70
2018-02-06T08:36:20.325Z,70.20
2018-02-06T08:38:47.137Z,70.90
2018-02-06T08:41:13.973Z,69.50
2018-02-06T08:43:40.782Z,69.90
2018-02-06T08:46:07.666Z,69.40
2018-02-06T08:48:35.210Z,68.70
2018-02-06T08:51:02.825Z,69.10
2018-02-06T08:53:29.648Z,69.00
2018-02-06T08:55:56.442Z,69.20
2018-02-06T08:58:24.046Z,68.70
2018-02-06T09:00:51.583Z,68.90
2018-02-06T09:03:18.403Z,68.80
2018-02-06T09:05:45.982Z,69.70
2018-02-06T09:08:12.837Z,69.70
2018-02-06T09:10:39.670Z,69.20
2018-02-06T09:13:07.227Z,68.40
2018-02-06T09:15:34.821Z,68.90
2018-02-06T09:18:01.657Z,68.90
2018-02-06T09:20:28.473Z,69.90
2018-02-06T09:22:56.048Z,68.60
2018-02-06T09:25:22.899Z,68.60
2018-02-06T09:27:49.762Z,67.70
2018-02-06T09:30:16.651Z,69.00
2018-02-06T09:32:44.237Z,68.80
2018-02-06T09:35:11.794Z,68.70
2018-02-06T09:37:38.619Z,68.70
2018-02-06T09:40:06.183Z,69.00
2018-02-06T09:42:33.825Z,68.40
2018-02-06T09:45:01.391Z,68.30
2018-02-06T09:47:28.958Z,68.90
2018-02-06T09:49:56.537Z,70.20
2018-02-06T09:52:23.367Z,70.20
2018-02-06T09:54:50.185Z,69.00
2018-02-06T09:57:17.199Z,68.20
2018-02-06T09:59:44.025Z,67.40
2018-02-06T10:02:11.548Z,67.60
2018-02-06T10:04:38.372Z,67.60
2018-02-06T10:07:05.238Z,67.60
2018-02-06T10:09:32.794Z,69.20
2018-02-06T10:11:59.677Z,69.20
2018-02-06T10:14:26.483Z,69.90
2018-02-06T10:16:54.044Z,69.80
2018-02-06T10:19:21.617Z,69.50
2018-02-06T10:21:48.442Z,69.50
2018-02-06T10:24:15.437Z,69.00
2018-02-06T10:26:42.226Z,69.90
2018-02-06T10:29:09.782Z,69.60
2018-02-06T10:31:37.404Z,69.00
2018-02-06T10:34:04.213Z,68.90
2018-02-06T10:36:31.006Z,68.60
2018-02-06T10:38:58.595Z,69.40
2018-02-06T10:41:26.150Z,70.00
2018-02-06T10:43:52.986Z,69.90
2018-02-06T10:46:19.774Z,69.70
2018-02-06T10:48:46.609Z,70.00
2018-02-06T10:51:13.454Z,70.70
2018-02-06T10:53:40.414Z,70.20
2018-02-06T10:56:07.225Z,70.10
2018-02-06T10:58:34.793Z,72.50
2018-02-06T11:01:01.641Z,72.40
2018-02-06T11:03:29.179Z,71.50
2018-02-06T11:05:56.019Z,71.50
2018-02-06T11:08:23.589Z,74.00
2018-02-06T11:10:50.454Z,73.80
2018-02-06T11:13:17.315Z,72.80
2018-02-06T11:15:44.114Z,72.70
2018-02-06T11:18:10.958Z,72.00
2018-02-06T11:20:38.494Z,72.30
2018-02-06T11:23:06.057Z,72.40
2018-02-06T11:25:33.674Z,72.80
2018-02-06T11:28:00.485Z,72.80
2018-02-06T11:30:27.341Z,73.10
2018-02-06T11:32:54.154Z,73.00
2018-02-06T11:35:22.682Z,73.00
2018-02-06T11:37:49.531Z,73.00
2018-02-06T11:40:16.354Z,72.30
2018-02-06T11:42:43.227Z,72.00
2018-02-06T11:45:10.051Z,71.90
2018-02-06T11:47:36.897Z,72.30
2018-02-06T11:50:03.763Z,71.40
2018-02-06T11:52:31.959Z,72.00
2018-02-06T11:54:58.857Z,71.60
2018-02-06T11:57:25.694Z,71.60
2018-02-06T11:59:52.525Z,70.70
2018-02-06T12:02:19.370Z,69.70
2018-02-06T12:04:46.209Z,71.10
2018-02-06T12:07:13.059Z,70.60
2018-02-06T12:09:39.888Z,71.10
2018-02-06T12:12:06.730Z,71.20
2018-02-06T12:14:33.557Z,70.30
2018-02-06T12:17:00.401Z,69.50
2018-02-06T12:19:27.225Z,70.70
2018-02-06T12:21:54.781Z,71.90
2018-02-06T12:24:21.649Z,71.90
2018-02-06T12:26:48.458Z,73.30
2018-02-06T12:29:15.286Z,72.20
2018-02-06T12:31:42.229Z,71.00
2018-02-06T12:34:09.049Z,70.60
2018-02-06T12:36:35.882Z,69.80
2018-02-06T12:39:02.790Z,69.90
2018-02-06T12:41:29.673Z,68.40
2018-02-06T12:43:56.489Z,68.90
2018-02-06T12:46:23.418Z,68.80
2018-02-06T12:48:51.006Z,69.80
2018-02-06T12:51:17.831Z,69.80
2018-02-06T12:53:45.375Z,69.40
2018-02-06T12:56:12.954Z,71.00
2018-02-06T12:58:40.522Z,71.30
2018-02-06T13:01:07.393Z,71.20
2018-02-06T13:03:34.210Z,70.10
2018-02-06T13:06:01.869Z,70.30
2018-02-06T13:08:28.704Z,70.00
2018-02-06T13:10:55.651Z,70.10
2018-02-06T13:13:22.490Z,71.50
2018-02-06T13:15:49.310Z,71.00
2018-02-06T13:18:16.877Z,68.10
2018-02-06T13:20:44.464Z,68.30
2018-02-06T13:23:11.302Z,68.20
2018-02-06T13:25:38.141Z,66.90
2018-02-06T13:28:04.949Z,64.50
2018-02-06T13:30:31.762Z,63.90
2018-02-06T13:32:58.606Z,66.10
2018-02-06T13:35:25.429Z,67.20
2018-02-06T13:37:52.237Z,66.20
2018-02-06T13:40:19.841Z,65.90
2018-02-06T13:42:46.650Z,65.80
2018-02-06T13:45:13.473Z,67.80
2018-02-06T13:47:40.321Z,68.30
2018-02-06T13:50:07.897Z,68.40
2018-02-06T13:52:34.738Z,68.40
2018-02-06T13:55:01.708Z,67.80
2018-02-06T13:57:47.190Z,68.60
2018-02-06T14:00:14.041Z,68.20
2018-02-06T14:02:40.873Z,69.50
2018-02-06T14:05:07.804Z,69.20
2018-02-06T14:07:34.626Z,69.30
2018-02-06T14:10:02.247Z,70.70
2018-02-06T14:12:29.061Z,70.70
2018-02-06T14:14:55.917Z,71.30
2018-02-06T14:17:22.709Z,71.90
2018-02-06T14:19:50.301Z,71.80
2018-02-06T14:22:17.197Z,71.60
2018-02-06T14:24:44.006Z,72.10
2018-02-06T14:27:10.797Z,71.10
2018-02-06T14:29:38.369Z,71.50
2018-02-06T14:32:05.913Z,71.90
2018-02-06T14:34:33.486Z,72.50
2018-02-06T14:37:00.338Z,72.50
2018-02-06T14:39:27.139Z,72.20
2018-02-06T14:41:53.985Z,72.70
2018-02-06T14:44:20.794Z,73.30
2018-02-06T14:46:54.589Z,73.70
2018-02-06T14:49:21.413Z,74.40
2018-02-06T14:51:48.246Z,74.60
2018-02-06T14:54:15.826Z,73.70
2018-02-06T14:56:42.657Z,73.70
2018-02-06T14:59:09.517Z,75.10
2018-02-06T15:01:36.377Z,74.70
2018-02-06T15:04:03.217Z,75.80
2018-02-06T15:06:30.121Z,76.00
2018-02-06T15:08:56.924Z,77.30
2018-02-06T15:11:24.514Z,77.40
2018-02-06T15:13:52.081Z,77.70
2018-02-06T15:16:19.631Z,78.60
2018-02-06T15:18:47.217Z,78.50
2018-02-06T15:21:14.029Z,78.50
2018-02-06T15:23:41.621Z,78.10
2018-02-06T15:26:08.434Z,78.00
2018-02-06T15:28:36.009Z,78.10
2018-02-06T15:31:03.574Z,78.30
2018-02-06T15:33:30.406Z,78.30
2018-02-06T15:35:57.966Z,79.40
2018-02-06T15:38:25.541Z,80.30
2018-02-06T15:40:53.150Z,80.60
2018-02-06T15:43:19.981Z,80.60
2018-02-06T15:45:46.837Z,81.40
2018-02-06T15:48:13.648Z,81.50
2018-02-06T15:50:40.438Z,81.40
2018-02-06T15:53:08.034Z,81.70
2018-02-06T15:55:35.576Z,82.20
2018-02-06T15:58:03.177Z,81.80
2018-02-06T16:03:33.890Z,80.90
2018-02-06T16:06:01.482Z,80.60
2018-02-06T16:08:29.171Z,80.50
2018-02-06T16:10:55.998Z,80.50
2018-02-06T16:13:22.820Z,81.00
2018-02-06T16:15:49.721Z,81.00
2018-02-06T16:18:17.302Z,82.70
2018-02-06T16:20:44.972Z,81.20
2018-02-06T16:23:12.522Z,81.40
2018-02-06T16:25:39.342Z,81.30
2018-02-06T16:28:06.933Z,82.20
2018-02-06T16:30:33.790Z,82.10
2018-02-06T16:33:00.630Z,82.70
2018-02-06T16:35:27.466Z,82.90
2018-02-06T16:37:54.325Z,82.90
2018-02-06T16:40:21.170Z,82.60
2018-02-06T16:42:48.081Z,82.50
2018-02-06T16:45:15.020Z,83.00
2018-02-06T16:47:41.864Z,83.20
2018-02-06T16:50:09.449Z,84.30
2018-02-06T16:52:36.361Z,84.30
2018-02-06T16:55:04.222Z,84.80
2018-02-06T16:57:31.130Z,84.80
2018-02-06T16:59:58.014Z,85.00
2018-02-06T17:02:37.354Z,84.70
2018-02-06T17:05:04.225Z,84.10
2018-02-06T17:07:31.049Z,83.80
2018-02-06T17:09:57.914Z,84.10
2018-02-06T17:12:25.228Z,85.20
2018-02-06T17:14:52.198Z,85.90
2018-02-06T17:17:19.641Z,85.70
2018-02-06T17:19:47.206Z,86.00
2018-02-06T17:22:14.867Z,86.00
2018-02-06T17:24:42.418Z,86.40
2018-02-06T17:27:09.989Z,86.60
2018-02-06T17:29:36.996Z,86.40
2018-02-06T17:32:04.183Z,85.40
2018-02-06T17:34:31.155Z,85.70
2018-02-06T17:36:58.035Z,84.70
2018-02-06T17:39:24.985Z,84.60
2018-02-06T17:41:51.945Z,85.50
2018-02-06T17:44:18.806Z,86.20
2018-02-06T17:46:45.712Z,87.20
2018-02-06T17:49:12.577Z,86.80
2018-02-06T17:51:39.510Z,86.40
2018-02-06T17:54:06.365Z,86.10
2018-02-06T17:56:33.188Z,86.00
2018-02-06T17:59:00.802Z,85.40
2018-02-06T18:01:27.683Z,85.40
2018-02-06T18:03:54.695Z,85.50
2018-02-06T18:06:21.675Z,85.80
2018-02-06T18:08:48.502Z,85.80
2018-02-06T18:11:15.362Z,85.60
2018-02-06T18:13:42.213Z,85.90
2018-02-06T18:16:09.066Z,86.10
2018-02-06T18:18:36.566Z,85.70
2018-02-06T18:21:03.421Z,85.60
2018-02-06T18:23:30.284Z,86.20
2018-02-06T18:25:57.178Z,85.70
2018-02-06T18:28:24.781Z,86.80
2018-02-06T18:30:51.679Z,85.90
2018-02-06T18:33:19.328Z,85.50
2018-02-06T18:35:46.953Z,85.00
2018-02-06T18:38:13.798Z,84.90
2018-02-06T18:40:48.426Z,84.70
2018-02-06T18:43:15.379Z,84.70
2018-02-06T18:45:42.221Z,85.60
2018-02-06T18:48:09.082Z,85.10
2018-02-06T18:50:35.882Z,84.80
2018-02-06T18:53:02.792Z,84.50
2018-02-06T18:55:29.690Z,84.50
2018-02-06T18:57:56.515Z,84.30
2018-02-06T19:00:23.398Z,84.20
2018-02-06T19:02:50.315Z,83.70
2018-02-06T19:05:17.138Z,83.40
2018-02-06T19:07:43.993Z,83.80
2018-02-06T19:10:10.838Z,84.30
2018-02-06T19:12:37.718Z,84.40
2018-02-06T19:15:05.278Z,84.20
2018-02-06T19:17:32.848Z,84.30
2018-02-06T19:20:01.239Z,85.20
2018-02-06T19:22:28.134Z,85.10
2018-02-06T19:24:56.075Z,85.50
2018-02-06T19:27:23.917Z,86.40
2018-02-06T19:29:53.023Z,86.20
2018-02-06T19:32:19.950Z,86.10
2018-02-06T19:34:48.406Z,85.70
2018-02-06T19:37:16.891Z,85.50
2018-02-06T19:39:44.425Z,85.40
2018-02-06T19:42:12.415Z,85.00
2018-02-06T19:44:39.495Z,84.70
2018-02-06T19:47:06.354Z,84.60
2018-02-06T19:49:33.262Z,85.60
2018-02-06T19:52:00.229Z,85.90
2018-02-06T19:54:27.993Z,86.40
2018-02-06T19:56:54.909Z,86.70
2018-02-06T19:59:23.617Z,87.00
2018-02-06T20:01:50.574Z,86.90
2018-02-06T20:04:18.145Z,87.60
2018-02-06T20:06:45.029Z,87.60
2018-02-06T20:09:11.962Z,87.20
2018-02-06T20:11:38.926Z,87.10
2018-02-06T20:14:07.442Z,88.10
2018-02-06T20:16:34.303Z,87.00
2018-02-06T20:19:01.210Z,86.70
2018-02-06T20:21:31.010Z,86.50
2018-02-06T20:23:58.640Z,86.40
2018-02-06T20:26:27.242Z,87.00
2018-02-06T20:28:54.147Z,86.90
2018-02-06T20:31:21.162Z,86.20
2018-02-06T20:33:48.133Z,85.80
2018-02-06T20:36:15.643Z,86.30
2018-02-06T20:38:42.578Z,87.30
2018-02-06T20:41:09.642Z,88.30
2018-02-06T20:43:37.391Z,88.30
2018-02-06T20:46:04.269Z,88.50
2018-02-06T20:48:31.214Z,88.80
2018-02-06T20:50:58.079Z,88.40
2018-02-06T20:53:25.903Z,89.00
2018-02-06T20:55:52.885Z,89.00
2018-02-06T20:58:19.970Z,89.60
2018-02-06T21:00:47.103Z,89.90
2018-02-06T21:03:14.190Z,90.50
2018-02-06T21:05:41.199Z,90.20
2018-02-06T21:08:08.068Z,90.10
2018-02-06T21:10:34.950Z,90.10
2018-02-06T21:13:02.706Z,90.30
2018-02-06T21:15:30.434Z,90.00
2018-02-06T21:17:57.596Z,89.90
2018-02-06T21:20:25.450Z,90.20
2018-02-06T21:22:53.254Z,90.60
2018-02-06T21:25:20.215Z,90.60
2018-02-06T21:27:48.251Z,90.70
2018-02-06T21:30:15.182Z,91.20
2018-02-06T21:32:43.169Z,91.00
2018-02-06T21:35:10.191Z,91.10
2018-02-06T21:37:38.083Z,90.80
2018-02-06T21:40:05.024Z,90.90
2018-02-06T21:42:32.986Z,90.80
2018-02-06T21:44:59.960Z,90.40
2018-02-06T21:47:27.031Z,90.30
2018-02-06T21:49:53.966Z,90.30
2018-02-06T21:52:20.890Z,90.90
2018-02-06T21:54:48.470Z,91.40
2018-02-06T21:57:15.288Z,91.00
2018-02-06T21:59:42.118Z,91.10
2018-02-06T22:02:09.085Z,91.10
2018-02-06T22:04:35.932Z,90.80
2018-02-06T22:07:02.783Z,90.70
2018-02-06T22:09:29.629Z,90.90
2018-02-06T22:11:56.555Z,90.60
2018-02-06T22:14:24.134Z,91.00
2018-02-06T22:16:50.996Z,90.90
2018-02-06T22:19:17.823Z,91.00
2018-02-06T22:21:44.718Z,91.10
2018-02-06T22:24:11.538Z,90.50
2018-02-06T22:26:38.365Z,91.10
2018-02-06T22:29:05.235Z,91.20
2018-02-06T22:31:32.086Z,91.10
2018-02-06T22:33:58.957Z,91.00
2018-02-06T22:36:25.841Z,91.30
2018-02-06T22:38:52.662Z,91.20
2018-02-06T22:41:19.550Z,90.70
2018-02-06T22:43:46.410Z,91.30
2018-02-06T22:46:13.223Z,91.50
2018-02-06T22:48:40.098Z,90.70
2018-02-06T22:51:06.954Z,91.00
2018-02-06T22:53:33.796Z,91.40
2018-02-06T22:56:00.626Z,91.30
2018-02-06T22:58:27.465Z,90.90
2018-02-06T23:00:54.337Z,90.80
2018-02-06T23:03:21.233Z,90.70
2018-02-06T23:05:48.082Z,90.90
2018-02-06T23:08:14.918Z,90.40
2018-02-06T23:10:41.771Z,91.00
2018-02-06T23:13:08.605Z,90.80
2018-02-06T23:15:35.462Z,90.40
2018-02-06T23:18:02.282Z,90.20
2018-02-06T23:20:29.105Z,90.20
2018-02-06T23:22:56.030Z,90.30
2018-02-06T23:25:23.571Z,91.20
2018-02-06T23:27:50.407Z,91.10
2018-02-06T23:30:17.296Z,91.40
2018-02-06T23:32:44.245Z,91.30
2018-02-06T23:35:11.061Z,91.30
2018-02-06T23:37:38.668Z,91.40
2018-02-06T23:40:05.515Z,91.40
2018-02-06T23:42:32.378Z,91.40
2018-02-06T23:44:59.201Z,91.30
2018-02-06T23:47:26.817Z,91.30
2018-02-06T23:49:54.422Z,91.30
2018-02-06T23:52:21.270Z,91.20
2018-02-06T23:54:48.151Z,91.10
2018-02-06T23:57:14.942Z,91.40
2018-02-06T23:59:41.761Z,91.20
